createdAt,value
2023-04-15T00:01:19.901Z,60.73
2023-04-15T00:02:44.377Z,60.95
2023-04-15T00:04:07.869Z,60.98
2023-04-15T00:05:31.129Z,61.01
2023-04-15T00:06:55.015Z,60.60
2023-04-15T00:08:17.334Z,60.88
2023-04-15T00:09:40.833Z,60.80
2023-04-15T00:11:05.999Z,60.66
2023-04-15T00:12:29.986Z,60.83
2023-04-15T00:13:53.200Z,60.69
2023-04-15T00:15:15.444Z,60.88
2023-04-15T00:16:38.702Z,60.34
2023-04-15T00:18:04.506Z,60.60
2023-04-15T00:19:27.699Z,60.72
2023-04-15T00:20:50.840Z,60.68
2023-04-15T00:22:13.277Z,60.47
2023-04-15T00:23:37.687Z,60.84
2023-04-15T00:25:01.177Z,60.91
2023-04-15T00:26:24.253Z,60.70
2023-04-15T00:27:47.877Z,60.40
2023-04-15T00:29:11.577Z,60.34
2023-04-15T00:30:33.838Z,60.47
2023-04-15T00:31:53.078Z,60.74
2023-04-15T00:32:55.600Z,60.26
2023-04-15T00:34:00.465Z,60.41
2023-04-15T00:35:03.277Z,60.33
2023-04-15T00:36:08.647Z,60.03
2023-04-15T00:37:12.026Z,60.16
2023-04-15T00:38:14.380Z,60.38
2023-04-15T00:39:17.603Z,60.37
2023-04-15T00:40:24.767Z,60.08
2023-04-15T00:41:28.155Z,60.00
2023-04-15T00:42:30.623Z,60.22
2023-04-15T00:43:34.378Z,59.83
2023-04-15T00:44:36.868Z,59.87
2023-04-15T00:45:40.304Z,59.97
2023-04-15T00:46:45.533Z,60.00
2023-04-15T00:47:48.906Z,59.91
2023-04-15T00:48:52.052Z,60.24
2023-04-15T00:49:56.741Z,60.14
2023-04-15T00:50:59.298Z,60.13
2023-04-15T00:52:02.616Z,60.09
2023-04-15T00:53:05.500Z,59.78
2023-04-15T00:54:08.998Z,59.67
2023-04-15T00:55:11.537Z,59.67
2023-04-15T00:56:15.605Z,60.02
2023-04-15T00:57:18.102Z,60.07
2023-04-15T00:58:21.459Z,59.89
2023-04-15T00:59:24.328Z,59.69
2023-04-15T01:00:27.939Z,59.67
2023-04-15T01:01:31.870Z,59.58
2023-04-15T01:02:55.201Z,59.53
2023-04-15T01:04:18.814Z,59.75
2023-04-15T01:05:42.952Z,59.43
2023-04-15T01:07:07.125Z,59.98
2023-04-15T01:08:29.737Z,59.84
2023-04-15T01:09:53.572Z,59.74
2023-04-15T01:11:16.405Z,59.78
2023-04-15T01:12:40.520Z,60.00
2023-04-15T01:14:03.710Z,59.65
2023-04-15T01:15:27.651Z,59.46
2023-04-15T01:16:51.015Z,59.82
2023-04-15T01:18:14.670Z,59.46
2023-04-15T01:19:38.308Z,59.21
2023-04-15T01:21:02.561Z,59.49
2023-04-15T01:22:27.161Z,59.40
2023-04-15T01:23:52.851Z,59.18
2023-04-15T01:25:19.553Z,59.46
2023-04-15T01:26:44.708Z,59.27
2023-04-15T01:28:09.919Z,59.21
2023-04-15T01:29:15.676Z,59.48
2023-04-15T01:30:22.886Z,59.40
2023-04-15T01:31:26.159Z,59.07
2023-04-15T01:32:28.868Z,59.22
2023-04-15T01:33:32.876Z,58.83
2023-04-15T01:34:35.923Z,59.05
2023-04-15T01:35:39.503Z,59.34
2023-04-15T01:36:42.119Z,58.87
2023-04-15T01:37:45.931Z,58.92
2023-04-15T01:38:48.602Z,58.61
2023-04-15T01:39:51.863Z,58.81
2023-04-15T01:40:54.293Z,58.78
2023-04-15T01:41:59.075Z,58.63
2023-04-15T01:43:01.525Z,58.73
2023-04-15T01:44:04.997Z,58.55
2023-04-15T01:45:08.449Z,58.78
2023-04-15T01:46:12.451Z,58.75
2023-04-15T01:47:14.877Z,58.50
2023-04-15T01:48:18.791Z,58.61
2023-04-15T01:49:21.184Z,58.37
2023-04-15T01:50:25.078Z,58.69
2023-04-15T01:51:27.944Z,58.43
2023-04-15T01:52:32.233Z,58.85
2023-04-15T01:53:34.757Z,58.64
2023-04-15T01:54:38.103Z,58.51
2023-04-15T01:55:41.185Z,58.73
2023-04-15T01:56:44.551Z,58.30
2023-04-15T01:57:48.422Z,58.65
2023-04-15T01:58:51.866Z,58.28
2023-04-15T01:59:54.295Z,58.05
2023-04-15T02:00:57.911Z,58.05
2023-04-15T02:02:01.936Z,58.21
2023-04-15T02:03:26.300Z,58.35
2023-04-15T02:04:48.564Z,58.21
2023-04-15T02:06:12.135Z,58.41
2023-04-15T02:07:35.801Z,58.15
2023-04-15T02:08:59.406Z,58.00
2023-04-15T02:10:22.390Z,58.13
2023-04-15T02:11:45.867Z,58.12
2023-04-15T02:13:09.723Z,58.12
2023-04-15T02:14:33.023Z,58.61
2023-04-15T02:15:57.307Z,58.39
2023-04-15T02:17:19.580Z,57.93
2023-04-15T02:18:43.585Z,58.50
2023-04-15T02:20:06.734Z,58.36
2023-04-15T02:21:30.059Z,58.47
2023-04-15T02:22:52.780Z,58.22
2023-04-15T02:24:16.402Z,58.60
2023-04-15T02:25:40.096Z,58.34
2023-04-15T02:27:03.690Z,58.13
2023-04-15T02:28:28.988Z,58.26
2023-04-15T02:29:51.395Z,58.27
2023-04-15T02:31:14.634Z,57.87
2023-04-15T02:32:38.182Z,58.02
2023-04-15T02:34:03.189Z,57.98
2023-04-15T02:35:26.824Z,58.46
2023-04-15T02:36:49.807Z,58.06
2023-04-15T02:38:14.299Z,58.28
2023-04-15T02:39:37.218Z,58.04
2023-04-15T02:41:00.758Z,58.06
2023-04-15T02:42:23.133Z,58.09
2023-04-15T02:43:47.805Z,58.21
2023-04-15T02:45:13.001Z,57.99
2023-04-15T02:46:36.625Z,58.22
2023-04-15T02:47:58.996Z,58.40
2023-04-15T02:49:23.110Z,58.53
2023-04-15T02:50:47.234Z,58.57
2023-04-15T02:52:10.087Z,58.28
2023-04-15T02:53:33.239Z,58.47
2023-04-15T02:55:01.141Z,58.47
2023-04-15T02:56:24.443Z,58.10
2023-04-15T02:57:47.634Z,58.45
2023-04-15T02:59:12.546Z,58.07
2023-04-15T03:00:36.225Z,58.38
2023-04-15T03:02:01.188Z,58.12
2023-04-15T03:03:24.624Z,58.21
2023-04-15T03:04:48.005Z,58.22
2023-04-15T03:06:11.781Z,58.34
2023-04-15T03:07:34.556Z,58.38
2023-04-15T03:08:57.991Z,58.51
2023-04-15T03:10:21.516Z,58.15
2023-04-15T03:11:43.756Z,58.66
2023-04-15T03:13:07.002Z,58.34
2023-04-15T03:14:30.998Z,58.45
2023-04-15T03:15:54.318Z,58.64
2023-04-15T03:17:17.219Z,58.20
2023-04-15T03:18:40.554Z,58.46
2023-04-15T03:20:05.242Z,58.37
2023-04-15T03:21:27.907Z,58.39
2023-04-15T03:22:51.176Z,58.59
2023-04-15T03:24:14.398Z,58.12
2023-04-15T03:25:37.573Z,58.38
2023-04-15T03:27:01.275Z,58.42
2023-04-15T03:28:23.554Z,58.17
2023-04-15T03:29:48.438Z,58.02
2023-04-15T03:31:10.883Z,58.17
2023-04-15T03:32:34.153Z,58.44
2023-04-15T03:33:56.514Z,57.92
2023-04-15T03:35:19.803Z,58.50
2023-04-15T03:36:43.034Z,58.60
2023-04-15T03:38:06.587Z,58.28
2023-04-15T03:39:29.773Z,57.86
2023-04-15T03:40:52.989Z,57.99
2023-04-15T03:42:16.638Z,58.14
2023-04-15T03:43:39.860Z,57.96
2023-04-15T03:45:04.688Z,57.96
2023-04-15T03:46:27.080Z,57.82
2023-04-15T03:47:51.122Z,57.90
2023-04-15T03:49:14.686Z,58.03
2023-04-15T03:50:38.317Z,57.97
2023-04-15T03:52:00.654Z,57.87
2023-04-15T03:53:24.379Z,57.93
2023-04-15T03:54:46.638Z,57.64
2023-04-15T03:55:53.089Z,58.01
2023-04-15T03:57:03.431Z,57.60
2023-04-15T03:58:13.077Z,58.02
2023-04-15T03:59:24.046Z,58.04
2023-04-15T04:00:29.258Z,57.58
2023-04-15T04:01:36.154Z,57.76
2023-04-15T04:02:40.027Z,57.68
2023-04-15T04:03:42.649Z,57.75
2023-04-15T04:04:46.038Z,57.57
2023-04-15T04:05:48.433Z,57.72
2023-04-15T04:06:53.565Z,57.19
2023-04-15T04:07:56.016Z,57.33
2023-04-15T04:09:09.387Z,57.21
2023-04-15T04:10:12.000Z,57.59
2023-04-15T04:11:15.585Z,57.30
2023-04-15T04:12:18.538Z,57.55
2023-04-15T04:13:21.937Z,57.20
2023-04-15T04:14:29.781Z,57.04
2023-04-15T04:15:33.602Z,57.20
2023-04-15T04:16:40.105Z,57.11
2023-04-15T04:17:43.030Z,57.39
2023-04-15T04:18:46.624Z,57.24
2023-04-15T04:19:49.049Z,57.31
2023-04-15T04:20:52.365Z,57.18
2023-04-15T04:21:55.023Z,57.28
2023-04-15T04:22:58.354Z,57.12
2023-04-15T04:24:00.880Z,56.93
2023-04-15T04:25:04.359Z,56.88
2023-04-15T04:26:06.717Z,57.24
2023-04-15T04:27:10.192Z,56.91
2023-04-15T04:28:13.106Z,56.93
2023-04-15T04:29:16.371Z,56.90
2023-04-15T04:30:18.900Z,56.65
2023-04-15T04:31:23.606Z,56.64
2023-04-15T04:32:26.245Z,56.59
2023-04-15T04:33:29.947Z,56.59
2023-04-15T04:34:32.767Z,56.57
2023-04-15T04:35:37.843Z,56.58
2023-04-15T04:36:40.251Z,56.98
2023-04-15T04:37:43.881Z,56.43
2023-04-15T04:38:46.950Z,56.99
2023-04-15T04:39:50.339Z,56.79
2023-04-15T04:41:03.765Z,56.78
2023-04-15T04:42:06.495Z,56.51
2023-04-15T04:43:10.104Z,56.80
2023-04-15T04:44:13.206Z,56.78
2023-04-15T04:45:16.469Z,56.36
2023-04-15T04:46:18.916Z,56.17
2023-04-15T04:47:23.723Z,56.56
2023-04-15T04:48:27.187Z,56.62
2023-04-15T04:49:30.505Z,56.50
2023-04-15T04:50:34.064Z,56.45
2023-04-15T04:51:36.731Z,56.57
2023-04-15T04:52:40.333Z,56.29
2023-04-15T04:53:43.335Z,56.67
2023-04-15T04:54:47.488Z,56.32
2023-04-15T04:55:51.643Z,56.33
2023-04-15T04:56:54.103Z,56.48
2023-04-15T04:57:57.499Z,56.18
2023-04-15T04:59:00.282Z,56.29
2023-04-15T05:00:05.109Z,56.50
2023-04-15T05:01:10.254Z,56.51
2023-04-15T05:02:35.260Z,56.29
2023-04-15T05:03:58.776Z,56.35
2023-04-15T05:05:22.275Z,56.43
2023-04-15T05:06:45.944Z,56.55
2023-04-15T05:08:08.250Z,56.37
2023-04-15T05:09:32.340Z,56.69
2023-04-15T05:10:53.977Z,56.53
2023-04-15T05:11:56.783Z,56.49
2023-04-15T05:13:06.120Z,56.28
2023-04-15T05:14:08.397Z,56.47
2023-04-15T05:15:30.888Z,56.24
2023-04-15T05:16:33.230Z,56.79
2023-04-15T05:17:37.819Z,56.26
2023-04-15T05:18:40.158Z,56.27
2023-04-15T05:19:45.076Z,56.09
2023-04-15T05:20:47.533Z,56.75
2023-04-15T05:21:50.892Z,56.21
2023-04-15T05:22:53.215Z,56.16
2023-04-15T05:23:56.409Z,56.57
2023-04-15T05:24:59.143Z,56.24
2023-04-15T05:26:02.885Z,56.32
2023-04-15T05:27:08.633Z,56.14
2023-04-15T05:28:12.563Z,56.40
2023-04-15T05:29:17.768Z,56.69
2023-04-15T05:30:28.386Z,56.22
2023-04-15T05:31:31.568Z,56.31
2023-04-15T05:32:35.014Z,56.16
2023-04-15T05:33:39.386Z,56.11
2023-04-15T05:34:42.926Z,56.25
2023-04-15T05:35:45.636Z,56.22
2023-04-15T05:36:49.167Z,56.08
2023-04-15T05:37:52.184Z,55.94
2023-04-15T05:39:01.053Z,56.40
2023-04-15T05:40:05.241Z,56.41
2023-04-15T05:41:19.587Z,56.21
2023-04-15T05:42:31.708Z,56.38
2023-04-15T05:43:34.213Z,56.20
2023-04-15T05:44:37.866Z,56.19
2023-04-15T05:45:40.499Z,56.11
2023-04-15T05:46:44.460Z,56.34
2023-04-15T05:47:55.484Z,56.53
2023-04-15T05:49:00.795Z,56.20
2023-04-15T05:50:27.622Z,56.50
2023-04-15T05:51:30.781Z,56.46
2023-04-15T05:52:37.113Z,56.08
2023-04-15T05:53:49.476Z,56.50
2023-04-15T05:54:52.952Z,56.45
2023-04-15T05:55:56.258Z,56.63
2023-04-15T05:57:00.098Z,56.21
2023-04-15T05:58:03.817Z,56.00
2023-04-15T05:59:07.662Z,56.04
2023-04-15T06:00:15.371Z,56.30
2023-04-15T06:01:21.070Z,56.30
2023-04-15T06:02:26.713Z,56.41
2023-04-15T06:03:49.189Z,56.46
2023-04-15T06:05:12.776Z,56.26
2023-04-15T06:06:36.532Z,56.53
2023-04-15T06:07:59.757Z,56.35
2023-04-15T06:09:23.063Z,56.39
2023-04-15T06:10:46.353Z,56.52
2023-04-15T06:12:12.347Z,56.36
2023-04-15T06:13:21.521Z,56.61
2023-04-15T06:14:34.557Z,56.05
2023-04-15T06:15:43.221Z,56.01
2023-04-15T06:16:47.109Z,56.36
2023-04-15T06:17:49.837Z,56.07
2023-04-15T06:18:53.584Z,56.10
2023-04-15T06:19:56.559Z,56.28
2023-04-15T06:21:00.801Z,55.93
2023-04-15T06:22:07.381Z,56.33
2023-04-15T06:23:13.695Z,56.42
2023-04-15T06:24:16.238Z,55.86
2023-04-15T06:25:29.648Z,56.32
2023-04-15T06:26:39.603Z,56.42
2023-04-15T06:27:43.068Z,56.53
2023-04-15T06:28:46.650Z,56.13
2023-04-15T06:29:49.515Z,56.25
2023-04-15T06:30:54.574Z,56.01
2023-04-15T06:31:57.230Z,56.16
2023-04-15T06:33:10.920Z,56.15
2023-04-15T06:34:13.364Z,56.37
2023-04-15T06:35:16.844Z,55.96
2023-04-15T06:36:26.551Z,55.93
2023-04-15T06:37:30.636Z,55.92
2023-04-15T06:38:34.521Z,55.86
2023-04-15T06:39:37.308Z,56.12
2023-04-15T06:40:41.172Z,55.64
2023-04-15T06:41:43.835Z,56.16
2023-04-15T06:42:47.382Z,56.16
2023-04-15T06:43:51.573Z,56.03
2023-04-15T06:44:57.797Z,56.27
2023-04-15T06:46:00.608Z,56.11
2023-04-15T06:47:09.180Z,56.02
2023-04-15T06:48:12.172Z,56.05
2023-04-15T06:49:17.633Z,56.40
2023-04-15T06:50:31.187Z,56.04
2023-04-15T06:51:38.758Z,56.32
2023-04-15T06:52:44.302Z,56.32
2023-04-15T06:53:54.130Z,56.02
2023-04-15T06:55:00.677Z,56.31
2023-04-15T06:56:07.278Z,56.12
2023-04-15T06:57:10.407Z,55.89
2023-04-15T06:58:14.165Z,56.13
2023-04-15T06:59:21.503Z,55.83
2023-04-15T07:00:24.482Z,56.27
2023-04-15T07:01:36.458Z,56.05
2023-04-15T07:03:01.080Z,56.13
2023-04-15T07:04:24.588Z,56.57
2023-04-15T07:05:47.881Z,56.18
2023-04-15T07:07:11.807Z,56.15
2023-04-15T07:08:36.461Z,56.09
2023-04-15T07:10:00.058Z,56.21
2023-04-15T07:11:23.378Z,56.56
2023-04-15T07:12:45.935Z,56.12
2023-04-15T07:14:09.238Z,56.80
2023-04-15T07:15:32.498Z,56.01
2023-04-15T07:16:54.889Z,56.38
2023-04-15T07:18:18.209Z,56.16
2023-04-15T07:19:41.493Z,56.30
2023-04-15T07:21:05.031Z,56.34
2023-04-15T07:22:27.400Z,56.17
2023-04-15T07:23:52.093Z,56.49
2023-04-15T07:25:15.429Z,56.33
2023-04-15T07:26:38.737Z,56.30
2023-04-15T07:28:02.624Z,56.23
2023-04-15T07:29:26.987Z,56.30
2023-04-15T07:30:50.512Z,56.20
2023-04-15T07:32:13.847Z,56.16
2023-04-15T07:33:37.357Z,56.71
2023-04-15T07:35:01.184Z,56.62
2023-04-15T07:36:24.474Z,56.44
2023-04-15T07:37:47.711Z,56.72
2023-04-15T07:39:12.305Z,56.42
2023-04-15T07:40:36.253Z,56.58
2023-04-15T07:42:00.259Z,56.72
2023-04-15T07:43:23.589Z,56.66
2023-04-15T07:44:46.870Z,56.55
2023-04-15T07:46:10.762Z,56.43
2023-04-15T07:47:34.092Z,56.70
2023-04-15T07:48:57.522Z,56.65
2023-04-15T07:50:20.984Z,56.84
2023-04-15T07:51:44.507Z,56.67
2023-04-15T07:53:08.437Z,57.01
2023-04-15T07:54:33.673Z,56.65
2023-04-15T07:55:57.469Z,56.91
2023-04-15T07:57:21.541Z,56.52
2023-04-15T07:58:44.958Z,56.80
2023-04-15T08:00:09.596Z,56.60
2023-04-15T08:01:33.097Z,56.80
2023-04-15T08:03:00.319Z,56.67
2023-04-15T08:04:24.113Z,56.99
2023-04-15T08:05:47.584Z,56.94
2023-04-15T08:07:11.209Z,56.90
2023-04-15T08:08:35.037Z,56.85
2023-04-15T08:09:58.674Z,57.14
2023-04-15T08:11:22.155Z,56.79
2023-04-15T08:12:43.885Z,56.77
2023-04-15T08:14:06.612Z,56.72
2023-04-15T08:15:29.962Z,56.79
2023-04-15T08:16:53.288Z,56.90
2023-04-15T08:18:15.625Z,56.30
2023-04-15T08:19:39.610Z,55.72
2023-04-15T08:21:11.139Z,55.55
2023-04-15T08:22:34.560Z,54.75
2023-04-15T08:23:57.914Z,54.36
2023-04-15T08:25:23.079Z,54.29
2023-04-15T08:26:46.977Z,53.90
2023-04-15T08:28:10.449Z,53.55
2023-04-15T08:29:34.078Z,53.55
2023-04-15T08:30:57.420Z,53.61
2023-04-15T08:32:20.698Z,53.56
2023-04-15T08:33:43.236Z,54.05
2023-04-15T08:35:07.962Z,54.11
2023-04-15T08:36:32.411Z,53.79
2023-04-15T08:37:55.757Z,53.30
2023-04-15T08:39:19.689Z,52.78
2023-04-15T08:40:45.602Z,52.74
2023-04-15T08:42:14.705Z,52.87
2023-04-15T08:43:44.164Z,52.62
2023-04-15T08:45:11.439Z,52.76
2023-04-15T08:46:35.027Z,52.53
2023-04-15T08:48:00.144Z,52.55
2023-04-15T08:49:26.717Z,52.55
2023-04-15T08:50:50.069Z,52.81
2023-04-15T08:52:14.473Z,52.95
2023-04-15T08:53:39.480Z,53.01
2023-04-15T08:55:04.968Z,52.74
2023-04-15T08:56:32.725Z,53.08
2023-04-15T08:57:56.194Z,53.66
2023-04-15T08:59:18.643Z,54.01
2023-04-15T09:00:42.441Z,54.81
2023-04-15T09:02:06.735Z,55.68
2023-04-15T09:03:30.289Z,56.69
2023-04-15T09:04:54.218Z,57.27
2023-04-15T09:06:18.125Z,57.76
2023-04-15T09:07:41.438Z,58.11
2023-04-15T09:09:04.695Z,58.72
2023-04-15T09:10:29.305Z,58.68
2023-04-15T09:11:54.724Z,59.35
2023-04-15T09:13:18.075Z,59.32
2023-04-15T09:14:42.355Z,59.36
2023-04-15T09:16:08.801Z,59.59
2023-04-15T09:17:35.145Z,59.35
2023-04-15T09:18:58.536Z,58.95
2023-04-15T09:20:21.173Z,58.94
2023-04-15T09:21:49.137Z,58.63
2023-04-15T09:23:17.703Z,58.23
2023-04-15T09:24:43.433Z,58.35
2023-04-15T09:26:07.566Z,58.08
2023-04-15T09:27:32.124Z,58.10
2023-04-15T09:28:55.590Z,57.84
2023-04-15T09:30:18.910Z,57.68
2023-04-15T09:31:41.932Z,57.65
2023-04-15T09:33:09.096Z,57.33
2023-04-15T09:34:22.667Z,57.58
2023-04-15T09:35:26.324Z,57.65
2023-04-15T09:36:30.587Z,57.81
2023-04-15T09:37:36.611Z,57.83
2023-04-15T09:38:57.369Z,58.01
2023-04-15T09:39:59.652Z,57.70
2023-04-15T09:41:02.959Z,57.52
2023-04-15T09:42:07.234Z,57.60
2023-04-15T09:43:13.712Z,57.80
2023-04-15T09:44:24.118Z,58.13
2023-04-15T09:45:29.736Z,57.91
2023-04-15T09:46:43.553Z,58.17
2023-04-15T09:47:45.886Z,57.91
2023-04-15T09:49:08.294Z,57.96
2023-04-15T09:50:11.780Z,58.04
2023-04-15T09:51:15.600Z,58.46
2023-04-15T09:52:21.451Z,58.35
2023-04-15T09:53:26.592Z,58.34
2023-04-15T09:54:36.821Z,58.21
2023-04-15T09:55:41.502Z,58.38
2023-04-15T09:56:44.239Z,58.39
2023-04-15T09:57:48.413Z,58.13
2023-04-15T09:58:57.541Z,58.50
2023-04-15T10:00:01.669Z,58.21
2023-04-15T10:01:09.498Z,58.37
2023-04-15T10:02:14.569Z,58.23
2023-04-15T10:03:38.169Z,58.50
2023-04-15T10:05:03.336Z,58.33
2023-04-15T10:06:28.552Z,57.76
2023-04-15T10:07:52.143Z,58.36
2023-04-15T10:09:15.453Z,58.44
2023-04-15T10:10:39.220Z,58.14
2023-04-15T10:12:04.975Z,57.92
2023-04-15T10:13:32.966Z,58.40
2023-04-15T10:15:00.913Z,58.33
2023-04-15T10:16:29.063Z,58.47
2023-04-15T10:17:55.421Z,58.25
2023-04-15T10:19:23.095Z,58.13
2023-04-15T10:20:47.306Z,58.01
2023-04-15T10:22:10.907Z,57.99
2023-04-15T10:23:35.617Z,57.99
2023-04-15T10:24:59.994Z,58.18
2023-04-15T10:26:23.853Z,58.23
2023-04-15T10:27:48.664Z,58.36
2023-04-15T10:29:13.030Z,58.40
2023-04-15T10:30:38.370Z,57.92
2023-04-15T10:32:03.282Z,58.17
2023-04-15T10:33:27.234Z,58.42
2023-04-15T10:34:54.426Z,57.96
2023-04-15T10:36:18.199Z,57.93
2023-04-15T10:37:41.490Z,58.20
2023-04-15T10:39:25.350Z,58.13
2023-04-15T10:40:48.663Z,57.95
2023-04-15T10:42:13.383Z,57.92
2023-04-15T10:43:37.756Z,58.17
2023-04-15T10:45:02.254Z,58.20
2023-04-15T10:46:38.152Z,57.89
2023-04-15T10:48:05.339Z,57.76
2023-04-15T10:49:28.889Z,57.76
2023-04-15T10:50:58.865Z,58.03
2023-04-15T10:52:25.975Z,57.88
2023-04-15T10:53:49.298Z,57.75
2023-04-15T10:55:16.598Z,57.71
2023-04-15T10:56:39.810Z,57.72
2023-04-15T10:58:03.937Z,58.00
2023-04-15T10:59:27.191Z,57.38
2023-04-15T11:00:54.135Z,57.82
2023-04-15T11:02:18.864Z,57.94
2023-04-15T11:03:44.766Z,57.71
2023-04-15T11:05:08.103Z,57.71
2023-04-15T11:06:45.568Z,57.81
2023-04-15T11:08:09.285Z,57.82
2023-04-15T11:09:33.870Z,57.85
2023-04-15T11:10:57.199Z,57.52
2023-04-15T11:12:20.702Z,57.49
2023-04-15T11:13:49.877Z,57.91
2023-04-15T11:15:31.210Z,57.95
2023-04-15T11:16:54.410Z,57.78
2023-04-15T11:18:19.870Z,57.58
2023-04-15T11:19:43.760Z,58.01
2023-04-15T11:21:09.907Z,57.78
2023-04-15T11:22:32.237Z,57.59
2023-04-15T11:23:55.502Z,57.70
2023-04-15T11:25:24.705Z,57.74
2023-04-15T11:26:48.071Z,57.73
2023-04-15T11:28:11.140Z,57.67
2023-04-15T11:29:34.486Z,57.65
2023-04-15T11:30:58.946Z,57.39
2023-04-15T11:32:23.793Z,57.46
2023-04-15T11:33:56.615Z,57.33
2023-04-15T11:35:21.356Z,57.59
2023-04-15T11:36:45.068Z,57.70
2023-04-15T11:38:11.506Z,57.67
2023-04-15T11:39:34.925Z,57.37
2023-04-15T11:40:59.629Z,57.44
2023-04-15T11:42:23.152Z,57.78
2023-04-15T11:43:46.463Z,57.46
2023-04-15T11:45:09.685Z,57.51
2023-04-15T11:46:13.025Z,57.46
2023-04-15T11:47:28.906Z,57.47
2023-04-15T11:48:32.824Z,57.15
2023-04-15T11:49:41.642Z,57.35
2023-04-15T11:50:44.025Z,57.25
2023-04-15T11:51:47.323Z,57.45
2023-04-15T11:52:56.848Z,57.14
2023-04-15T11:54:00.920Z,57.10
2023-04-15T11:55:04.461Z,57.22
2023-04-15T11:56:09.224Z,57.12
2023-04-15T11:57:11.673Z,57.04
2023-04-15T11:58:16.982Z,57.10
2023-04-15T11:59:20.809Z,57.08
2023-04-15T12:00:23.393Z,57.07
2023-04-15T12:01:33.058Z,56.88
2023-04-15T12:02:37.657Z,56.97
2023-04-15T12:03:42.692Z,56.74
2023-04-15T12:04:47.654Z,56.78
2023-04-15T12:06:08.736Z,56.90
2023-04-15T12:07:13.158Z,56.63
2023-04-15T12:08:25.649Z,56.85
2023-04-15T12:09:32.048Z,56.69
2023-04-15T12:10:44.985Z,56.93
2023-04-15T12:11:51.310Z,56.82
2023-04-15T12:12:54.009Z,56.70
2023-04-15T12:14:05.824Z,56.99
2023-04-15T12:15:11.470Z,56.78
2023-04-15T12:16:25.383Z,56.80
2023-04-15T12:17:51.618Z,57.07
2023-04-15T12:18:57.760Z,56.90
2023-04-15T12:20:03.770Z,56.92
2023-04-15T12:21:10.892Z,56.82
2023-04-15T12:22:17.374Z,56.66
2023-04-15T12:23:24.916Z,56.82
2023-04-15T12:24:40.080Z,56.83
2023-04-15T12:25:42.874Z,56.58
2023-04-15T12:26:58.949Z,57.02
2023-04-15T12:28:11.959Z,57.07
2023-04-15T12:29:18.354Z,56.65
2023-04-15T12:30:21.502Z,56.83
2023-04-15T12:31:25.223Z,56.63
2023-04-15T12:32:38.605Z,56.70
2023-04-15T12:33:50.241Z,56.92
2023-04-15T12:34:55.498Z,56.96
2023-04-15T12:35:59.485Z,56.79
2023-04-15T12:37:05.315Z,56.58
2023-04-15T12:38:10.808Z,56.84
2023-04-15T12:39:15.455Z,56.72
2023-04-15T12:40:25.656Z,56.74
2023-04-15T12:41:39.061Z,56.76
2023-04-15T12:42:42.696Z,56.31
2023-04-15T12:43:46.157Z,56.39
2023-04-15T12:44:50.313Z,56.72
2023-04-15T12:45:54.633Z,56.56
2023-04-15T12:47:05.148Z,56.62
2023-04-15T12:48:09.349Z,56.69
2023-04-15T12:49:20.134Z,56.69
2023-04-15T12:50:23.110Z,56.33
2023-04-15T12:51:28.624Z,56.32
2023-04-15T12:52:31.594Z,56.33
2023-04-15T12:53:35.068Z,56.60
2023-04-15T12:54:40.842Z,56.68
2023-04-15T12:55:44.279Z,56.32
2023-04-15T12:56:56.981Z,56.56
2023-04-15T12:57:59.860Z,56.81
2023-04-15T12:59:06.419Z,56.66
2023-04-15T13:00:11.155Z,56.90
2023-04-15T13:01:22.024Z,56.40
2023-04-15T13:02:44.967Z,56.61
2023-04-15T13:04:09.083Z,56.94
2023-04-15T13:05:32.414Z,56.80
2023-04-15T13:06:37.087Z,56.62
2023-04-15T13:07:39.390Z,56.72
2023-04-15T13:08:51.233Z,56.98
2023-04-15T13:10:01.166Z,56.91
2023-04-15T13:11:04.684Z,56.94
2023-04-15T13:12:07.978Z,56.92
2023-04-15T13:13:10.294Z,56.84
2023-04-15T13:14:13.606Z,56.61
2023-04-15T13:15:16.116Z,56.72
2023-04-15T13:16:20.163Z,56.70
2023-04-15T13:17:22.499Z,56.62
2023-04-15T13:18:25.948Z,56.52
2023-04-15T13:19:29.222Z,56.75
2023-04-15T13:20:31.957Z,56.46
2023-04-15T13:21:36.833Z,56.65
2023-04-15T13:22:39.711Z,56.54
2023-04-15T13:23:46.538Z,56.36
2023-04-15T13:24:51.512Z,56.28
2023-04-15T13:25:56.084Z,56.42
2023-04-15T13:27:07.922Z,56.84
2023-04-15T13:28:13.122Z,56.21
2023-04-15T13:29:25.879Z,56.49
2023-04-15T13:30:32.566Z,56.30
2023-04-15T13:31:35.027Z,56.43
2023-04-15T13:32:49.929Z,56.42
2023-04-15T13:33:59.398Z,56.60
2023-04-15T13:35:02.596Z,56.76
2023-04-15T13:36:13.224Z,56.55
2023-04-15T13:37:29.257Z,56.53
2023-04-15T13:38:32.259Z,56.19
2023-04-15T13:39:36.640Z,56.54
2023-04-15T13:40:39.376Z,56.28
2023-04-15T13:41:52.949Z,56.58
2023-04-15T13:42:56.297Z,56.43
2023-04-15T13:44:01.642Z,56.26
2023-04-15T13:45:13.881Z,56.38
2023-04-15T13:46:16.896Z,56.45
2023-04-15T13:47:27.880Z,56.48
2023-04-15T13:48:41.428Z,56.43
2023-04-15T13:49:44.381Z,56.38
2023-04-15T13:50:47.755Z,56.43
2023-04-15T13:52:00.163Z,56.13
2023-04-15T13:53:09.137Z,56.52
2023-04-15T13:54:13.956Z,56.04
2023-04-15T13:55:27.127Z,56.34
2023-04-15T13:56:31.982Z,55.98
2023-04-15T13:57:36.659Z,55.99
2023-04-15T14:01:47.127Z,55.64
2023-04-15T14:03:10.599Z,53.37
2023-04-15T14:04:34.849Z,53.65
2023-04-15T14:05:58.582Z,53.64
2023-04-15T14:07:21.850Z,53.74
2023-04-15T14:08:45.152Z,54.17
2023-04-15T14:10:09.515Z,54.35
2023-04-15T14:11:35.428Z,54.66
2023-04-15T14:12:58.752Z,55.25
2023-04-15T14:14:22.021Z,55.21
2023-04-15T14:15:44.943Z,55.53
2023-04-15T14:17:09.625Z,55.50
2023-04-15T14:18:34.191Z,55.57
2023-04-15T14:19:57.489Z,55.79
2023-04-15T14:21:20.891Z,56.13
2023-04-15T14:22:44.245Z,55.77
2023-04-15T14:24:07.977Z,55.91
2023-04-15T14:25:34.041Z,55.71
2023-04-15T14:26:59.009Z,55.94
2023-04-15T14:28:22.583Z,55.66
2023-04-15T14:29:45.846Z,55.64
2023-04-15T14:31:09.132Z,55.70
2023-04-15T14:32:33.854Z,55.85
2023-04-15T14:33:57.168Z,56.26
2023-04-15T14:35:20.436Z,56.75
2023-04-15T14:36:44.649Z,57.93
2023-04-15T14:38:11.702Z,58.88
2023-04-15T14:39:35.119Z,59.75
2023-04-15T14:40:58.561Z,60.51
2023-04-15T14:42:22.202Z,61.03
2023-04-15T14:43:46.397Z,61.29
2023-04-15T14:45:11.122Z,61.69
2023-04-15T14:46:34.853Z,61.74
2023-04-15T14:48:00.095Z,62.09
2023-04-15T14:49:24.462Z,62.39
2023-04-15T14:50:48.684Z,62.71
2023-04-15T14:52:11.952Z,62.88
2023-04-15T14:53:34.296Z,63.00
2023-04-15T14:54:57.651Z,63.22
2023-04-15T14:56:20.920Z,63.40
2023-04-15T14:57:43.685Z,63.31
2023-04-15T14:59:07.500Z,63.97
2023-04-15T15:00:31.362Z,63.52
2023-04-15T15:01:54.653Z,63.95
2023-04-15T15:03:19.531Z,63.94
2023-04-15T15:04:43.217Z,64.19
2023-04-15T15:06:06.551Z,64.25
2023-04-15T15:07:29.846Z,64.39
2023-04-15T15:08:53.582Z,65.09
2023-04-15T15:10:16.798Z,64.86
2023-04-15T15:11:57.455Z,65.15
2023-04-15T15:13:21.292Z,65.12
2023-04-15T15:14:44.592Z,65.43
2023-04-15T15:16:08.447Z,65.20
2023-04-15T15:17:31.840Z,65.21
2023-04-15T15:18:56.567Z,65.40
2023-04-15T15:20:19.477Z,65.31
2023-04-15T15:21:42.734Z,65.77
2023-04-15T15:23:05.232Z,65.87
2023-04-15T15:24:28.542Z,65.73
2023-04-15T15:25:52.090Z,65.42
2023-04-15T15:27:15.413Z,65.79
2023-04-15T15:28:38.662Z,65.70
2023-04-15T15:30:01.035Z,65.82
2023-04-15T15:31:24.740Z,65.70
2023-04-15T15:32:48.145Z,65.64
2023-04-15T15:34:12.848Z,65.87
2023-04-15T15:35:35.123Z,65.87
2023-04-15T15:36:58.452Z,65.79
2023-04-15T15:38:21.919Z,66.04
2023-04-15T15:39:45.240Z,65.67
2023-04-15T15:41:08.479Z,66.10
2023-04-15T15:42:32.396Z,65.91
2023-04-15T15:43:55.927Z,65.85
2023-04-15T15:45:19.535Z,65.97
2023-04-15T15:46:43.001Z,66.06
2023-04-15T15:48:07.515Z,66.23
2023-04-15T15:49:11.539Z,66.22
2023-04-15T15:50:15.669Z,66.15
2023-04-15T15:51:18.780Z,66.16
2023-04-15T15:52:22.392Z,66.42
2023-04-15T15:53:26.272Z,66.14
2023-04-15T15:54:29.419Z,66.74
2023-04-15T15:55:32.876Z,66.78
2023-04-15T15:56:38.976Z,66.85
2023-04-15T15:57:42.360Z,66.48
2023-04-15T15:58:46.638Z,66.72
2023-04-15T15:59:53.066Z,67.06
2023-04-15T16:01:02.018Z,67.06
2023-04-15T16:02:45.809Z,67.13
2023-04-15T16:04:09.155Z,67.33
2023-04-15T16:05:34.273Z,67.71
2023-04-15T16:06:56.685Z,67.68
2023-04-15T16:08:20.322Z,67.84
2023-04-15T16:09:43.922Z,67.93
2023-04-15T16:11:07.193Z,67.92
2023-04-15T16:12:29.486Z,67.76
2023-04-15T16:13:52.805Z,67.78